Terminal Aerodrome Forecast
Issued by NWS Shreveport, LA

Home | Current Version | Previous Version | Text Only | Print | Product List | Glossary On
Versions: 1 2 3 4 5 6 7 8 9 10 11 12 13 14 15 16
000
FTUS44 KSHV 051135
TAFLFK
TAF
KLFK 051135Z 0512/0612 VRB03KT P6SM SCT008 SCT120
      TEMPO 0512/0514 BKN008
     FM051400 VRB04KT P6SM SCT015 SCT120
     FM051600 21004KT P6SM SCT030
     FM051800 20005KT P6SM SCT045
     FM060200 17003KT P6SM FEW070 SCT250
     FM060600 VRB03KT P6SM SCT250=

USA.gov is the U.S. government's official web portal to all federal, state and local government web resources and services.